sensor_id;sensor_type;location;lat;lon;timestamp;P1;durP1;ratioP1;P2;durP2;ratioP2
17832;SDS011;9041;49.718;21.798;2023-07-13T00:00:41;13.38;;;7.78;;
17832;SDS011;9041;49.718;21.798;2023-07-13T00:03:10;14.48;;;8.10;;
17832;SDS011;9041;49.718;21.798;2023-07-13T00:05:38;13.50;;;7.45;;
17832;SDS011;9041;49.718;21.798;2023-07-13T00:08:05;11.77;;;7.75;;
17832;SDS011;9041;49.718;21.798;2023-07-13T00:10:33;16.52;;;8.82;;
17832;SDS011;9041;49.718;21.798;2023-07-13T00:13:00;18.40;;;8.15;;
17832;SDS011;9041;49.718;21.798;2023-07-13T00:15:27;14.00;;;8.43;;
17832;SDS011;9041;49.718;21.798;2023-07-13T00:17:55;19.25;;;7.90;;
17832;SDS011;9041;49.718;21.798;2023-07-13T00:20:23;16.00;;;8.35;;
17832;SDS011;9041;49.718;21.798;2023-07-13T00:22:51;14.15;;;8.68;;
17832;SDS011;9041;49.718;21.798;2023-07-13T00:25:18;16.92;;;8.80;;
17832;SDS011;9041;49.718;21.798;2023-07-13T00:27:46;17.55;;;8.57;;
17832;SDS011;9041;49.718;21.798;2023-07-13T00:30:14;14.68;;;8.52;;
17832;SDS011;9041;49.718;21.798;2023-07-13T00:32:41;14.60;;;8.20;;
17832;SDS011;9041;49.718;21.798;2023-07-13T00:35:08;14.13;;;7.93;;
17832;SDS011;9041;49.718;21.798;2023-07-13T00:37:36;16.42;;;7.70;;
17832;SDS011;9041;49.718;21.798;2023-07-13T00:40:03;14.98;;;8.60;;
17832;SDS011;9041;49.718;21.798;2023-07-13T00:42:31;14.05;;;8.73;;
17832;SDS011;9041;49.718;21.798;2023-07-13T00:45:02;14.48;;;8.55;;
17832;SDS011;9041;49.718;21.798;2023-07-13T00:47:30;15.45;;;9.20;;
17832;SDS011;9041;49.718;21.798;2023-07-13T00:49:57;15.73;;;9.25;;
17832;SDS011;9041;49.718;21.798;2023-07-13T00:52:23;18.20;;;9.40;;
17832;SDS011;9041;49.718;21.798;2023-07-13T00:54:51;14.68;;;9.82;;
17832;SDS011;9041;49.718;21.798;2023-07-13T00:57:19;19.00;;;9.65;;
17832;SDS011;9041;49.718;21.798;2023-07-13T00:59:51;16.33;;;9.68;;
17832;SDS011;9041;49.718;21.798;2023-07-13T01:02:20;17.02;;;9.32;;
17832;SDS011;9041;49.718;21.798;2023-07-13T01:04:47;19.33;;;9.98;;
17832;SDS011;9041;49.718;21.798;2023-07-13T01:07:14;17.90;;;10.00;;
17832;SDS011;9041;49.718;21.798;2023-07-13T01:09:41;19.83;;;11.10;;
17832;SDS011;9041;49.718;21.798;2023-07-13T01:12:09;51.55;;;25.38;;
17832;SDS011;9041;49.718;21.798;2023-07-13T01:14:36;60.85;;;32.92;;
17832;SDS011;9041;49.718;21.798;2023-07-13T01:17:04;46.92;;;25.67;;
17832;SDS011;9041;49.718;21.798;2023-07-13T01:19:32;39.58;;;22.52;;
17832;SDS011;9041;49.718;21.798;2023-07-13T01:22:03;31.40;;;19.10;;
17832;SDS011;9041;49.718;21.798;2023-07-13T01:24:33;40.45;;;20.65;;
17832;SDS011;9041;49.718;21.798;2023-07-13T01:27:01;38.80;;;19.50;;
17832;SDS011;9041;49.718;21.798;2023-07-13T01:29:30;30.50;;;17.08;;
17832;SDS011;9041;49.718;21.798;2023-07-13T01:31:57;34.05;;;19.10;;
17832;SDS011;9041;49.718;21.798;2023-07-13T01:34:25;34.83;;;17.80;;
17832;SDS011;9041;49.718;21.798;2023-07-13T01:36:52;30.45;;;16.38;;
17832;SDS011;9041;49.718;21.798;2023-07-13T01:39:21;22.33;;;13.50;;
17832;SDS011;9041;49.718;21.798;2023-07-13T01:41:48;24.20;;;12.38;;
17832;SDS011;9041;49.718;21.798;2023-07-13T01:44:15;21.23;;;10.65;;
17832;SDS011;9041;49.718;21.798;2023-07-13T01:46:41;18.42;;;10.05;;
17832;SDS011;9041;49.718;21.798;2023-07-13T01:49:08;20.35;;;10.35;;
17832;SDS011;9041;49.718;21.798;2023-07-13T01:51:34;18.58;;;9.95;;
17832;SDS011;9041;49.718;21.798;2023-07-13T01:54:01;17.88;;;9.40;;
17832;SDS011;9041;49.718;21.798;2023-07-13T01:56:29;17.08;;;9.05;;
17832;SDS011;9041;49.718;21.798;2023-07-13T01:58:55;16.73;;;9.05;;
17832;SDS011;9041;49.718;21.798;2023-07-13T02:01:22;17.83;;;8.52;;
17832;SDS011;9041;49.718;21.798;2023-07-13T02:03:48;13.13;;;8.20;;
17832;SDS011;9041;49.718;21.798;2023-07-13T02:06:15;14.60;;;8.70;;
17832;SDS011;9041;49.718;21.798;2023-07-13T02:08:42;17.13;;;8.65;;
17832;SDS011;9041;49.718;21.798;2023-07-13T02:11:08;13.90;;;8.30;;
17832;SDS011;9041;49.718;21.798;2023-07-13T02:13:36;16.20;;;8.05;;
17832;SDS011;9041;49.718;21.798;2023-07-13T02:16:03;14.88;;;8.23;;
17832;SDS011;9041;49.718;21.798;2023-07-13T02:18:30;11.98;;;7.90;;
17832;SDS011;9041;49.718;21.798;2023-07-13T02:20:56;13.25;;;8.18;;
17832;SDS011;9041;49.718;21.798;2023-07-13T02:23:23;12.40;;;7.15;;
17832;SDS011;9041;49.718;21.798;2023-07-13T02:25:54;20.38;;;7.97;;
17832;SDS011;9041;49.718;21.798;2023-07-13T02:28:21;12.75;;;7.82;;
17832;SDS011;9041;49.718;21.798;2023-07-13T02:30:49;11.55;;;7.45;;
17832;SDS011;9041;49.718;21.798;2023-07-13T02:33:15;14.70;;;6.90;;
17832;SDS011;9041;49.718;21.798;2023-07-13T02:35:42;12.55;;;7.22;;
17832;SDS011;9041;49.718;21.798;2023-07-13T02:38:09;15.10;;;7.25;;
17832;SDS011;9041;49.718;21.798;2023-07-13T02:40:36;10.98;;;6.95;;
17832;SDS011;9041;49.718;21.798;2023-07-13T02:43:03;14.85;;;7.40;;
17832;SDS011;9041;49.718;21.798;2023-07-13T02:45:30;16.38;;;7.35;;
17832;SDS011;9041;49.718;21.798;2023-07-13T02:47:58;14.23;;;7.50;;
17832;SDS011;9041;49.718;21.798;2023-07-13T02:50:24;13.80;;;7.32;;
17832;SDS011;9041;49.718;21.798;2023-07-13T02:52:51;10.77;;;6.85;;
17832;SDS011;9041;49.718;21.798;2023-07-13T02:55:18;11.82;;;6.93;;
17832;SDS011;9041;49.718;21.798;2023-07-13T02:57:44;10.43;;;6.68;;
17832;SDS011;9041;49.718;21.798;2023-07-13T03:00:11;13.38;;;7.32;;
17832;SDS011;9041;49.718;21.798;2023-07-13T03:02:38;17.92;;;7.38;;
17832;SDS011;9041;49.718;21.798;2023-07-13T03:05:06;17.05;;;8.38;;
17832;SDS011;9041;49.718;21.798;2023-07-13T03:07:37;15.60;;;7.15;;
17832;SDS011;9041;49.718;21.798;2023-07-13T03:10:04;11.75;;;7.05;;
17832;SDS011;9041;49.718;21.798;2023-07-13T03:12:32;14.40;;;6.65;;
17832;SDS011;9041;49.718;21.798;2023-07-13T03:14:59;11.18;;;7.13;;
17832;SDS011;9041;49.718;21.798;2023-07-13T03:17:25;10.57;;;7.00;;
17832;SDS011;9041;49.718;21.798;2023-07-13T03:19:52;14.85;;;7.00;;
17832;SDS011;9041;49.718;21.798;2023-07-13T03:22:20;13.20;;;7.05;;
17832;SDS011;9041;49.718;21.798;2023-07-13T03:24:47;12.60;;;6.97;;
17832;SDS011;9041;49.718;21.798;2023-07-13T03:27:15;15.02;;;7.32;;
17832;SDS011;9041;49.718;21.798;2023-07-13T03:30:00;12.73;;;7.63;;
17832;SDS011;9041;49.718;21.798;2023-07-13T03:32:26;11.38;;;7.32;;
17832;SDS011;9041;49.718;21.798;2023-07-13T03:34:53;11.70;;;7.65;;
17832;SDS011;9041;49.718;21.798;2023-07-13T03:37:21;13.40;;;7.18;;
17832;SDS011;9041;49.718;21.798;2023-07-13T03:39:47;12.00;;;7.63;;
17832;SDS011;9041;49.718;21.798;2023-07-13T03:42:14;10.70;;;7.18;;
17832;SDS011;9041;49.718;21.798;2023-07-13T03:44:41;11.20;;;7.57;;
17832;SDS011;9041;49.718;21.798;2023-07-13T03:47:11;12.43;;;7.43;;
17832;SDS011;9041;49.718;21.798;2023-07-13T03:49:38;11.45;;;7.28;;
17832;SDS011;9041;49.718;21.798;2023-07-13T03:52:05;15.38;;;7.70;;
17832;SDS011;9041;49.718;21.798;2023-07-13T03:54:33;13.07;;;7.13;;
17832;SDS011;9041;49.718;21.798;2023-07-13T03:57:00;13.32;;;7.63;;
17832;SDS011;9041;49.718;21.798;2023-07-13T03:59:27;15.85;;;9.05;;
17832;SDS011;9041;49.718;21.798;2023-07-13T04:01:53;13.98;;;8.20;;
17832;SDS011;9041;49.718;21.798;2023-07-13T04:04:20;14.65;;;8.15;;
17832;SDS011;9041;49.718;21.798;2023-07-13T04:06:46;11.13;;;8.10;;
17832;SDS011;9041;49.718;21.798;2023-07-13T04:09:13;14.05;;;7.93;;
17832;SDS011;9041;49.718;21.798;2023-07-13T04:11:41;17.48;;;8.77;;
17832;SDS011;9041;49.718;21.798;2023-07-13T04:14:07;15.00;;;9.60;;
17832;SDS011;9041;49.718;21.798;2023-07-13T04:16:34;16.98;;;9.68;;
17832;SDS011;9041;49.718;21.798;2023-07-13T04:19:01;15.77;;;9.63;;
17832;SDS011;9041;49.718;21.798;2023-07-13T04:21:28;17.52;;;10.15;;
17832;SDS011;9041;49.718;21.798;2023-07-13T04:23:56;16.38;;;10.43;;
17832;SDS011;9041;49.718;21.798;2023-07-13T04:26:23;15.18;;;8.73;;
17832;SDS011;9041;49.718;21.798;2023-07-13T04:28:51;14.77;;;9.23;;
17832;SDS011;9041;49.718;21.798;2023-07-13T04:31:18;14.32;;;8.32;;
17832;SDS011;9041;49.718;21.798;2023-07-13T04:33:45;15.75;;;9.35;;
17832;SDS011;9041;49.718;21.798;2023-07-13T04:36:11;18.52;;;9.52;;
17832;SDS011;9041;49.718;21.798;2023-07-13T04:38:38;16.95;;;9.98;;
17832;SDS011;9041;49.718;21.798;2023-07-13T04:41:05;14.48;;;9.30;;
17832;SDS011;9041;49.718;21.798;2023-07-13T04:43:33;18.75;;;10.27;;
17832;SDS011;9041;49.718;21.798;2023-07-13T04:46:04;14.90;;;9.40;;
17832;SDS011;9041;49.718;21.798;2023-07-13T04:48:32;16.48;;;9.70;;
17832;SDS011;9041;49.718;21.798;2023-07-13T04:50:58;14.82;;;9.30;;
17832;SDS011;9041;49.718;21.798;2023-07-13T04:53:25;17.77;;;9.75;;
17832;SDS011;9041;49.718;21.798;2023-07-13T04:55:52;15.90;;;9.57;;
17832;SDS011;9041;49.718;21.798;2023-07-13T04:58:19;16.65;;;9.38;;
17832;SDS011;9041;49.718;21.798;2023-07-13T05:00:46;15.57;;;9.23;;
17832;SDS011;9041;49.718;21.798;2023-07-13T05:03:14;15.10;;;9.45;;
17832;SDS011;9041;49.718;21.798;2023-07-13T05:05:41;20.08;;;10.70;;
17832;SDS011;9041;49.718;21.798;2023-07-13T05:08:10;19.75;;;9.15;;
17832;SDS011;9041;49.718;21.798;2023-07-13T05:10:37;14.55;;;9.18;;
17832;SDS011;9041;49.718;21.798;2023-07-13T05:13:04;15.35;;;9.15;;
17832;SDS011;9041;49.718;21.798;2023-07-13T05:15:30;18.83;;;9.98;;
17832;SDS011;9041;49.718;21.798;2023-07-13T05:17:59;13.75;;;9.00;;
17832;SDS011;9041;49.718;21.798;2023-07-13T05:20:27;18.40;;;9.60;;
17832;SDS011;9041;49.718;21.798;2023-07-13T05:22:53;18.05;;;9.60;;
17832;SDS011;9041;49.718;21.798;2023-07-13T05:25:20;14.68;;;8.90;;
17832;SDS011;9041;49.718;21.798;2023-07-13T05:27:47;15.63;;;10.00;;
17832;SDS011;9041;49.718;21.798;2023-07-13T05:30:13;13.73;;;8.65;;
17832;SDS011;9041;49.718;21.798;2023-07-13T05:32:40;14.80;;;8.57;;
17832;SDS011;9041;49.718;21.798;2023-07-13T05:35:07;14.15;;;8.88;;
17832;SDS011;9041;49.718;21.798;2023-07-13T05:37:36;14.50;;;9.52;;
17832;SDS011;9041;49.718;21.798;2023-07-13T05:40:03;16.30;;;9.25;;
17832;SDS011;9041;49.718;21.798;2023-07-13T05:42:30;17.05;;;9.40;;
17832;SDS011;9041;49.718;21.798;2023-07-13T05:44:57;14.52;;;8.93;;
17832;SDS011;9041;49.718;21.798;2023-07-13T05:47:24;15.68;;;9.35;;
17832;SDS011;9041;49.718;21.798;2023-07-13T05:49:50;16.92;;;9.82;;
17832;SDS011;9041;49.718;21.798;2023-07-13T05:52:17;19.02;;;10.38;;
17832;SDS011;9041;49.718;21.798;2023-07-13T05:54:45;15.35;;;9.85;;
17832;SDS011;9041;49.718;21.798;2023-07-13T05:57:11;16.33;;;10.40;;
17832;SDS011;9041;49.718;21.798;2023-07-13T05:59:38;21.40;;;11.13;;
17832;SDS011;9041;49.718;21.798;2023-07-13T06:02:05;17.92;;;11.10;;
17832;SDS011;9041;49.718;21.798;2023-07-13T06:04:32;15.65;;;10.27;;
17832;SDS011;9041;49.718;21.798;2023-07-13T06:06:58;17.38;;;10.07;;
17832;SDS011;9041;49.718;21.798;2023-07-13T06:09:25;12.60;;;7.80;;
17832;SDS011;9041;49.718;21.798;2023-07-13T06:11:53;12.23;;;7.18;;
17832;SDS011;9041;49.718;21.798;2023-07-13T06:14:19;11.90;;;6.60;;
17832;SDS011;9041;49.718;21.798;2023-07-13T06:16:46;8.73;;;6.22;;
17832;SDS011;9041;49.718;21.798;2023-07-13T06:19:13;10.32;;;6.30;;
17832;SDS011;9041;49.718;21.798;2023-07-13T06:21:40;10.20;;;6.68;;
17832;SDS011;9041;49.718;21.798;2023-07-13T06:24:06;10.15;;;6.05;;
17832;SDS011;9041;49.718;21.798;2023-07-13T06:26:33;7.53;;;5.78;;
17832;SDS011;9041;49.718;21.798;2023-07-13T06:29:01;8.90;;;6.43;;
17832;SDS011;9041;49.718;21.798;2023-07-13T06:31:28;10.13;;;6.95;;
17832;SDS011;9041;49.718;21.798;2023-07-13T06:33:54;11.73;;;7.15;;
17832;SDS011;9041;49.718;21.798;2023-07-13T06:36:21;11.25;;;6.63;;
17832;SDS011;9041;49.718;21.798;2023-07-13T06:38:48;13.85;;;8.35;;
17832;SDS011;9041;49.718;21.798;2023-07-13T06:41:14;11.32;;;7.97;;
17832;SDS011;9041;49.718;21.798;2023-07-13T06:43:41;12.02;;;7.70;;
17832;SDS011;9041;49.718;21.798;2023-07-13T06:46:08;11.90;;;7.97;;
17832;SDS011;9041;49.718;21.798;2023-07-13T06:48:36;11.85;;;8.43;;
17832;SDS011;9041;49.718;21.798;2023-07-13T06:51:03;17.40;;;9.57;;
17832;SDS011;9041;49.718;21.798;2023-07-13T06:53:29;15.38;;;9.10;;
17832;SDS011;9041;49.718;21.798;2023-07-13T06:55:56;15.32;;;9.23;;
17832;SDS011;9041;49.718;21.798;2023-07-13T06:58:23;12.18;;;8.73;;
17832;SDS011;9041;49.718;21.798;2023-07-13T07:00:50;13.10;;;8.77;;
17832;SDS011;9041;49.718;21.798;2023-07-13T07:03:18;16.30;;;9.48;;
17832;SDS011;9041;49.718;21.798;2023-07-13T07:05:45;15.27;;;8.50;;
17832;SDS011;9041;49.718;21.798;2023-07-13T07:08:12;12.40;;;8.40;;
17832;SDS011;9041;49.718;21.798;2023-07-13T07:10:38;11.82;;;7.97;;
17832;SDS011;9041;49.718;21.798;2023-07-13T07:13:05;11.52;;;8.32;;
17832;SDS011;9041;49.718;21.798;2023-07-13T07:15:33;12.52;;;7.47;;
17832;SDS011;9041;49.718;21.798;2023-07-13T07:18:00;13.38;;;7.93;;
17832;SDS011;9041;49.718;21.798;2023-07-13T07:20:28;11.90;;;8.35;;
17832;SDS011;9041;49.718;21.798;2023-07-13T07:22:55;12.18;;;8.07;;
17832;SDS011;9041;49.718;21.798;2023-07-13T07:25:22;13.75;;;7.75;;
17832;SDS011;9041;49.718;21.798;2023-07-13T07:27:48;16.58;;;8.02;;
17832;SDS011;9041;49.718;21.798;2023-07-13T07:30:15;11.38;;;7.93;;
17832;SDS011;9041;49.718;21.798;2023-07-13T07:32:42;10.13;;;6.25;;
17832;SDS011;9041;49.718;21.798;2023-07-13T07:35:08;8.15;;;6.20;;
17832;SDS011;9041;49.718;21.798;2023-07-13T07:37:36;11.40;;;6.55;;
17832;SDS011;9041;49.718;21.798;2023-07-13T07:40:03;11.30;;;7.07;;
17832;SDS011;9041;49.718;21.798;2023-07-13T07:42:31;9.52;;;7.18;;
17832;SDS011;9041;49.718;21.798;2023-07-13T07:44:57;9.88;;;6.25;;
17832;SDS011;9041;49.718;21.798;2023-07-13T07:47:25;8.57;;;6.28;;
17832;SDS011;9041;49.718;21.798;2023-07-13T07:49:52;10.95;;;7.20;;
17832;SDS011;9041;49.718;21.798;2023-07-13T07:52:18;9.95;;;6.55;;
17832;SDS011;9041;49.718;21.798;2023-07-13T07:54:46;13.75;;;8.07;;
17832;SDS011;9041;49.718;21.798;2023-07-13T07:57:13;16.35;;;8.32;;
17832;SDS011;9041;49.718;21.798;2023-07-13T07:59:40;12.75;;;7.65;;
17832;SDS011;9041;49.718;21.798;2023-07-13T08:02:08;16.52;;;8.57;;
17832;SDS011;9041;49.718;21.798;2023-07-13T08:04:35;19.63;;;11.07;;
17832;SDS011;9041;49.718;21.798;2023-07-13T08:07:01;25.52;;;13.35;;
17832;SDS011;9041;49.718;21.798;2023-07-13T08:09:28;21.25;;;12.90;;
17832;SDS011;9041;49.718;21.798;2023-07-13T08:11:56;25.13;;;12.45;;
17832;SDS011;9041;49.718;21.798;2023-07-13T08:14:23;22.67;;;13.10;;
17832;SDS011;9041;49.718;21.798;2023-07-13T08:16:50;19.80;;;11.65;;
17832;SDS011;9041;49.718;21.798;2023-07-13T08:19:17;19.83;;;11.75;;
17832;SDS011;9041;49.718;21.798;2023-07-13T08:21:43;16.15;;;10.65;;
17832;SDS011;9041;49.718;21.798;2023-07-13T08:24:10;18.90;;;11.77;;
17832;SDS011;9041;49.718;21.798;2023-07-13T08:26:37;21.70;;;12.18;;
17832;SDS011;9041;49.718;21.798;2023-07-13T08:29:05;18.50;;;12.02;;
17832;SDS011;9041;49.718;21.798;2023-07-13T08:31:32;18.60;;;11.30;;
17832;SDS011;9041;49.718;21.798;2023-07-13T08:33:58;19.05;;;11.90;;
17832;SDS011;9041;49.718;21.798;2023-07-13T08:36:27;21.50;;;12.80;;
17832;SDS011;9041;49.718;21.798;2023-07-13T08:38:54;25.30;;;12.52;;
17832;SDS011;9041;49.718;21.798;2023-07-13T08:41:21;20.52;;;12.40;;
17832;SDS011;9041;49.718;21.798;2023-07-13T08:43:49;21.90;;;12.93;;
17832;SDS011;9041;49.718;21.798;2023-07-13T08:46:20;19.13;;;12.63;;
17832;SDS011;9041;49.718;21.798;2023-07-13T08:48:51;22.00;;;11.88;;
17832;SDS011;9041;49.718;21.798;2023-07-13T08:51:28;18.45;;;11.50;;
17832;SDS011;9041;49.718;21.798;2023-07-13T08:54:00;20.17;;;11.95;;
17832;SDS011;9041;49.718;21.798;2023-07-13T08:56:28;19.63;;;12.30;;
17832;SDS011;9041;49.718;21.798;2023-07-13T08:58:56;18.95;;;12.25;;
17832;SDS011;9041;49.718;21.798;2023-07-13T09:01:27;21.05;;;12.00;;
17832;SDS011;9041;49.718;21.798;2023-07-13T09:03:57;19.90;;;11.90;;
17832;SDS011;9041;49.718;21.798;2023-07-13T09:06:29;17.38;;;10.55;;
17832;SDS011;9041;49.718;21.798;2023-07-13T09:09:01;16.88;;;10.88;;
17832;SDS011;9041;49.718;21.798;2023-07-13T09:11:33;18.30;;;10.40;;
17832;SDS011;9041;49.718;21.798;2023-07-13T09:14:06;17.27;;;11.13;;
17832;SDS011;9041;49.718;21.798;2023-07-13T09:16:48;17.35;;;10.07;;
17832;SDS011;9041;49.718;21.798;2023-07-13T09:19:16;20.30;;;10.98;;
17832;SDS011;9041;49.718;21.798;2023-07-13T09:22:02;18.75;;;10.70;;
17832;SDS011;9041;49.718;21.798;2023-07-13T09:24:34;15.15;;;10.43;;
17832;SDS011;9041;49.718;21.798;2023-07-13T09:27:03;14.52;;;10.15;;
17832;SDS011;9041;49.718;21.798;2023-07-13T09:29:36;17.60;;;10.68;;
17832;SDS011;9041;49.718;21.798;2023-07-13T09:32:06;15.90;;;10.05;;
17832;SDS011;9041;49.718;21.798;2023-07-13T09:34:34;14.65;;;10.15;;
17832;SDS011;9041;49.718;21.798;2023-07-13T09:37:01;19.60;;;10.00;;
17832;SDS011;9041;49.718;21.798;2023-07-13T09:39:28;16.13;;;10.35;;
17832;SDS011;9041;49.718;21.798;2023-07-13T09:41:57;14.65;;;9.90;;
17832;SDS011;9041;49.718;21.798;2023-07-13T09:44:28;13.45;;;9.15;;
17832;SDS011;9041;49.718;21.798;2023-07-13T09:46:57;16.45;;;9.82;;
17832;SDS011;9041;49.718;21.798;2023-07-13T09:49:25;12.27;;;8.85;;
17832;SDS011;9041;49.718;21.798;2023-07-13T09:51:57;13.57;;;9.20;;
17832;SDS011;9041;49.718;21.798;2023-07-13T09:54:24;12.88;;;9.10;;
17832;SDS011;9041;49.718;21.798;2023-07-13T09:57:02;14.15;;;9.98;;
17832;SDS011;9041;49.718;21.798;2023-07-13T09:59:32;15.10;;;10.27;;
17832;SDS011;9041;49.718;21.798;2023-07-13T10:01:59;14.93;;;9.77;;
17832;SDS011;9041;49.718;21.798;2023-07-13T10:04:30;15.15;;;10.38;;
17832;SDS011;9041;49.718;21.798;2023-07-13T10:07:04;14.20;;;9.73;;
17832;SDS011;9041;49.718;21.798;2023-07-13T10:09:32;16.95;;;10.55;;
17832;SDS011;9041;49.718;21.798;2023-07-13T10:11:58;13.13;;;9.55;;
17832;SDS011;9041;49.718;21.798;2023-07-13T10:14:25;16.60;;;10.15;;
17832;SDS011;9041;49.718;21.798;2023-07-13T10:16:52;15.38;;;10.23;;
17832;SDS011;9041;49.718;21.798;2023-07-13T10:19:24;14.65;;;9.38;;
17832;SDS011;9041;49.718;21.798;2023-07-13T10:21:54;13.73;;;9.88;;
17832;SDS011;9041;49.718;21.798;2023-07-13T10:24:22;13.57;;;9.75;;
17832;SDS011;9041;49.718;21.798;2023-07-13T10:26:52;14.57;;;9.50;;
17832;SDS011;9041;49.718;21.798;2023-07-13T10:29:20;15.10;;;9.60;;
17832;SDS011;9041;49.718;21.798;2023-07-13T10:31:49;12.73;;;9.45;;
17832;SDS011;9041;49.718;21.798;2023-07-13T10:34:15;12.95;;;8.48;;
17832;SDS011;9041;49.718;21.798;2023-07-13T10:36:43;11.90;;;9.07;;
17832;SDS011;9041;49.718;21.798;2023-07-13T10:39:15;15.48;;;9.23;;
17832;SDS011;9041;49.718;21.798;2023-07-13T10:41:44;13.32;;;8.57;;
17832;SDS011;9041;49.718;21.798;2023-07-13T10:44:15;11.65;;;8.65;;
17832;SDS011;9041;49.718;21.798;2023-07-13T10:46:46;13.35;;;9.13;;
17832;SDS011;9041;49.718;21.798;2023-07-13T10:49:13;10.98;;;8.27;;
17832;SDS011;9041;49.718;21.798;2023-07-13T10:51:41;10.77;;;8.40;;
17832;SDS011;9041;49.718;21.798;2023-07-13T10:54:17;11.25;;;8.27;;
17832;SDS011;9041;49.718;21.798;2023-07-13T10:56:48;12.10;;;8.85;;
17832;SDS011;9041;49.718;21.798;2023-07-13T10:59:16;12.88;;;8.60;;
17832;SDS011;9041;49.718;21.798;2023-07-13T11:01:52;14.68;;;8.20;;
17832;SDS011;9041;49.718;21.798;2023-07-13T11:04:21;12.77;;;8.98;;
17832;SDS011;9041;49.718;21.798;2023-07-13T11:06:50;12.10;;;8.82;;
17832;SDS011;9041;49.718;21.798;2023-07-13T11:09:30;14.13;;;8.65;;
17832;SDS011;9041;49.718;21.798;2023-07-13T11:11:58;12.68;;;8.98;;
17832;SDS011;9041;49.718;21.798;2023-07-13T11:14:27;13.73;;;8.57;;
17832;SDS011;9041;49.718;21.798;2023-07-13T11:16:55;14.80;;;8.60;;
17832;SDS011;9041;49.718;21.798;2023-07-13T11:19:26;13.18;;;8.77;;
17832;SDS011;9041;49.718;21.798;2023-07-13T11:30:53;13.93;;;9.02;;
17832;SDS011;9041;49.718;21.798;2023-07-13T11:33:28;15.70;;;8.48;;
17832;SDS011;9041;49.718;21.798;2023-07-13T11:35:58;12.75;;;9.15;;
17832;SDS011;9041;49.718;21.798;2023-07-13T11:38:30;13.30;;;8.45;;
17832;SDS011;9041;49.718;21.798;2023-07-13T11:41:01;14.95;;;9.18;;
17832;SDS011;9041;49.718;21.798;2023-07-13T11:43:44;13.48;;;8.98;;
17832;SDS011;9041;49.718;21.798;2023-07-13T11:46:14;19.63;;;9.00;;
17832;SDS011;9041;49.718;21.798;2023-07-13T11:48:42;14.25;;;8.48;;
17832;SDS011;9041;49.718;21.798;2023-07-13T11:51:14;40.05;;;11.02;;
17832;SDS011;9041;49.718;21.798;2023-07-13T11:53:46;24.20;;;9.98;;
17832;SDS011;9041;49.718;21.798;2023-07-13T11:56:15;51.40;;;11.23;;
17832;SDS011;9041;49.718;21.798;2023-07-13T11:58:42;28.60;;;9.75;;
17832;SDS011;9041;49.718;21.798;2023-07-13T12:01:09;17.50;;;10.38;;
17832;SDS011;9041;49.718;21.798;2023-07-13T12:03:43;16.70;;;9.15;;
17832;SDS011;9041;49.718;21.798;2023-07-13T12:06:19;15.73;;;10.88;;
17832;SDS011;9041;49.718;21.798;2023-07-13T12:08:50;16.98;;;10.80;;
17832;SDS011;9041;49.718;21.798;2023-07-13T12:11:18;18.33;;;11.45;;
17832;SDS011;9041;49.718;21.798;2023-07-13T12:13:46;15.38;;;10.25;;
17832;SDS011;9041;49.718;21.798;2023-07-13T12:16:14;22.60;;;11.00;;
17832;SDS011;9041;49.718;21.798;2023-07-13T12:18:42;17.30;;;10.30;;
17832;SDS011;9041;49.718;21.798;2023-07-13T12:21:12;15.20;;;10.43;;
17832;SDS011;9041;49.718;21.798;2023-07-13T12:23:42;14.50;;;10.02;;
17832;SDS011;9041;49.718;21.798;2023-07-13T12:26:10;13.23;;;10.10;;
17832;SDS011;9041;49.718;21.798;2023-07-13T12:28:43;16.02;;;9.52;;
17832;SDS011;9041;49.718;21.798;2023-07-13T12:31:24;15.45;;;9.73;;
17832;SDS011;9041;49.718;21.798;2023-07-13T12:33:58;11.65;;;9.02;;
17832;SDS011;9041;49.718;21.798;2023-07-13T12:36:26;20.88;;;9.43;;
17832;SDS011;9041;49.718;21.798;2023-07-13T12:38:54;11.95;;;8.48;;
17832;SDS011;9041;49.718;21.798;2023-07-13T12:41:21;12.23;;;8.65;;
17832;SDS011;9041;49.718;21.798;2023-07-13T12:43:49;17.70;;;9.25;;
17832;SDS011;9041;49.718;21.798;2023-07-13T12:46:17;14.77;;;9.65;;
17832;SDS011;9041;49.718;21.798;2023-07-13T12:48:47;17.27;;;9.52;;
17832;SDS011;9041;49.718;21.798;2023-07-13T12:51:15;14.82;;;8.80;;
17832;SDS011;9041;49.718;21.798;2023-07-13T12:53:42;18.90;;;7.53;;
17832;SDS011;9041;49.718;21.798;2023-07-13T12:56:15;11.95;;;7.82;;
17832;SDS011;9041;49.718;21.798;2023-07-13T12:58:45;11.57;;;6.93;;
17832;SDS011;9041;49.718;21.798;2023-07-13T13:01:20;11.75;;;7.20;;
17832;SDS011;9041;49.718;21.798;2023-07-13T13:03:49;11.82;;;6.57;;
17832;SDS011;9041;49.718;21.798;2023-07-13T13:06:21;11.05;;;7.43;;
17832;SDS011;9041;49.718;21.798;2023-07-13T13:08:50;13.55;;;7.40;;
17832;SDS011;9041;49.718;21.798;2023-07-13T13:11:17;11.23;;;7.07;;
17832;SDS011;9041;49.718;21.798;2023-07-13T13:13:45;11.20;;;7.28;;
17832;SDS011;9041;49.718;21.798;2023-07-13T13:16:14;9.82;;;6.78;;
17832;SDS011;9041;49.718;21.798;2023-07-13T13:18:46;9.75;;;7.05;;
17832;SDS011;9041;49.718;21.798;2023-07-13T13:21:14;12.30;;;7.07;;
17832;SDS011;9041;49.718;21.798;2023-07-13T13:23:41;11.05;;;7.45;;
17832;SDS011;9041;49.718;21.798;2023-07-13T13:26:10;12.05;;;7.10;;
17832;SDS011;9041;49.718;21.798;2023-07-13T13:28:37;11.48;;;7.03;;
17832;SDS011;9041;49.718;21.798;2023-07-13T13:31:04;23.48;;;6.45;;
17832;SDS011;9041;49.718;21.798;2023-07-13T13:33:30;9.93;;;6.20;;
17832;SDS011;9041;49.718;21.798;2023-07-13T13:35:59;7.97;;;5.32;;
17832;SDS011;9041;49.718;21.798;2023-07-13T13:38:26;11.15;;;6.22;;
17832;SDS011;9041;49.718;21.798;2023-07-13T13:40:54;11.68;;;6.00;;
17832;SDS011;9041;49.718;21.798;2023-07-13T13:43:21;8.82;;;6.40;;
17832;SDS011;9041;49.718;21.798;2023-07-13T13:45:51;9.85;;;6.10;;
17832;SDS011;9041;49.718;21.798;2023-07-13T13:48:19;8.18;;;5.53;;
17832;SDS011;9041;49.718;21.798;2023-07-13T13:50:52;10.50;;;5.50;;
17832;SDS011;9041;49.718;21.798;2023-07-13T13:53:21;8.55;;;4.82;;
17832;SDS011;9041;49.718;21.798;2023-07-13T13:55:48;6.38;;;4.78;;
17832;SDS011;9041;49.718;21.798;2023-07-13T13:58:17;7.78;;;4.45;;
17832;SDS011;9041;49.718;21.798;2023-07-13T14:00:44;6.95;;;4.13;;
17832;SDS011;9041;49.718;21.798;2023-07-13T14:03:13;7.47;;;4.18;;
17832;SDS011;9041;49.718;21.798;2023-07-13T14:05:40;6.40;;;4.20;;
17832;SDS011;9041;49.718;21.798;2023-07-13T14:08:08;6.65;;;3.90;;
17832;SDS011;9041;49.718;21.798;2023-07-13T14:10:40;7.70;;;2.95;;
17832;SDS011;9041;49.718;21.798;2023-07-13T14:13:08;6.65;;;2.90;;
17832;SDS011;9041;49.718;21.798;2023-07-13T14:15:57;5.55;;;2.90;;
17832;SDS011;9041;49.718;21.798;2023-07-13T14:18:24;6.13;;;2.50;;
17832;SDS011;9041;49.718;21.798;2023-07-13T14:20:51;9.10;;;2.67;;
17832;SDS011;9041;49.718;21.798;2023-07-13T14:23:18;3.17;;;2.40;;
17832;SDS011;9041;49.718;21.798;2023-07-13T14:25:46;4.22;;;2.70;;
17832;SDS011;9041;49.718;21.798;2023-07-13T14:28:20;5.80;;;3.00;;
17832;SDS011;9041;49.718;21.798;2023-07-13T14:30:49;3.40;;;2.42;;
17832;SDS011;9041;49.718;21.798;2023-07-13T14:33:16;3.03;;;2.10;;
17832;SDS011;9041;49.718;21.798;2023-07-13T14:35:43;4.60;;;2.30;;
17832;SDS011;9041;49.718;21.798;2023-07-13T14:38:10;2.97;;;2.00;;
17832;SDS011;9041;49.718;21.798;2023-07-13T14:40:39;7.75;;;2.90;;
17832;SDS011;9041;49.718;21.798;2023-07-13T14:43:08;5.00;;;2.42;;
17832;SDS011;9041;49.718;21.798;2023-07-13T14:45:37;2.63;;;1.80;;
17832;SDS011;9041;49.718;21.798;2023-07-13T14:48:08;2.83;;;1.70;;